Webcam

2019/07/16 19:50 EBBR 161950Z VRB02KT CAVOK 16/12 Q1018 NOSIG

Webcam

--- Refresh now ---